Time;durP1;ratioP1;P1;durP2;ratioP2;P2;SDS_P1;SDS_P2;PMS_P1;PMS_P2;Temp;Humidity;BMP_temperature;BMP_pressure;BME280_temperature;BME280_humidity;BME280_pressure;Samples;Min_cycle;Max_cycle;Signal;HPM_P1;HPM_P2
2023/03/31 00:00:20;;;;;;;4.95;1.70;;;9.60;96.70;;;;;;2076718;28;20204;-61
2023/03/31 00:01:27;;;;;;;6.85;2.00;;;9.60;96.80;;;;;;2077026;28;20180;-61
2023/03/31 00:02:35;;;;;;;6.32;1.92;;;9.50;96.80;;;;;;2076459;28;20186;-61
2023/03/31 00:03:42;;;;;;;7.15;1.80;;;9.50;97.10;;;;;;2076742;28;20205;-60
2023/03/31 00:04:51;;;;;;;4.75;1.80;;;9.50;96.80;;;;;;2077464;28;20260;-61
2023/03/31 00:05:59;;;;;;;4.38;2.00;;;9.50;97.30;;;;;;2076516;28;20199;-61
2023/03/31 00:07:04;;;;;;;4.07;1.95;;;9.50;97.20;;;;;;2076741;28;20186;-61
2023/03/31 00:08:12;;;;;;;4.30;2.05;;;9.50;98.00;;;;;;2076893;28;20201;-61
2023/03/31 00:09:20;;;;;;;6.68;2.30;;;9.50;98.70;;;;;;2077307;28;20249;-62
2023/03/31 00:10:32;;;;;;;5.13;2.55;;;9.30;99.20;;;;;;2077252;28;20185;-61
2023/03/31 00:11:39;;;;;;;9.15;2.30;;;9.30;98.70;;;;;;2076639;28;20191;-61
2023/03/31 00:12:45;;;;;;;5.93;2.00;;;9.30;99.10;;;;;;2076563;28;20197;-62
2023/03/31 00:13:51;;;;;;;9.05;2.38;;;9.40;99.40;;;;;;2076131;28;20223;-62
2023/03/31 00:14:56;;;;;;;6.32;2.20;;;9.40;99.30;;;;;;2076030;28;20223;-61
2023/03/31 00:16:08;;;;;;;5.40;2.10;;;9.50;99.80;;;;;;2076680;28;20251;-61
2023/03/31 00:17:10;;;;;;;5.45;2.30;;;9.30;99.90;;;;;;2076537;28;20254;-62
2023/03/31 00:18:16;;;;;;;7.50;2.33;;;9.30;99.90;;;;;;2076683;28;20287;-62
2023/03/31 00:19:21;;;;;;;5.80;1.95;;;9.20;99.90;;;;;;2076777;28;20235;-61
2023/03/31 00:20:27;;;;;;;5.60;1.98;;;9.20;99.90;;;;;;2077132;28;20591;-63
2023/03/31 00:21:33;;;;;;;5.72;1.90;;;9.30;99.70;;;;;;2077063;28;20312;-62
2023/03/31 00:22:41;;;;;;;5.68;1.90;;;9.30;99.30;;;;;;2076868;28;20172;-62
2023/03/31 00:23:46;;;;;;;5.68;2.15;;;9.30;99.60;;;;;;2076965;28;20715;-62
2023/03/31 00:24:53;;;;;;;5.75;2.03;;;9.30;99.90;;;;;;2078191;28;20208;-61
2023/03/31 00:25:58;;;;;;;6.03;2.15;;;9.40;99.70;;;;;;2078249;28;20192;-62
2023/03/31 00:27:04;;;;;;;8.10;2.10;;;9.40;99.30;;;;;;2078089;28;20185;-62
2023/03/31 00:28:09;;;;;;;3.28;1.83;;;9.40;98.80;;;;;;2078227;28;20267;-61
2023/03/31 00:29:15;;;;;;;6.55;2.13;;;9.40;98.70;;;;;;2077360;28;20243;-62
2023/03/31 00:30:21;;;;;;;6.28;2.35;;;9.40;98.80;;;;;;2077738;28;20228;-62
2023/03/31 00:31:28;;;;;;;3.80;2.15;;;9.40;99.20;;;;;;2077916;28;20259;-61
2023/03/31 00:32:33;;;;;;;6.85;2.10;;;9.40;99.90;;;;;;2078063;28;20176;-61
2023/03/31 00:33:39;;;;;;;5.90;2.00;;;9.40;99.90;;;;;;2077863;28;20784;-61
2023/03/31 00:34:45;;;;;;;6.90;2.08;;;9.30;99.90;;;;;;2078194;28;20236;-61
2023/03/31 00:35:51;;;;;;;3.83;2.03;;;9.30;99.90;;;;;;2078369;28;20191;-60
2023/03/31 00:37:01;;;;;;;5.15;2.15;;;9.10;99.90;;;;;;2078218;28;20264;-62
2023/03/31 00:38:07;;;;;;;4.10;2.00;;;9.00;99.90;;;;;;2078169;28;20197;-61
2023/03/31 00:39:09;;;;;;;7.18;2.40;;;9.10;99.90;;;;;;2077936;28;20184;-61
2023/03/31 00:40:15;;;;;;;6.63;2.22;;;9.20;99.90;;;;;;2078305;28;20680;-61
2023/03/31 00:41:21;;;;;;;5.57;2.13;;;9.10;99.90;;;;;;2077892;28;20668;-61
2023/03/31 00:42:27;;;;;;;4.78;1.90;;;9.30;99.90;;;;;;2078245;28;20192;-59
2023/03/31 00:43:36;;;;;;;5.95;2.33;;;9.20;99.90;;;;;;2078074;28;20178;-61
2023/03/31 00:45:12;;;;;;;5.60;2.22;;;9.20;99.90;;;;;;2078034;28;20271;-61
2023/03/31 00:46:26;;;;;;;5.75;2.05;;;9.30;99.90;;;;;;2078154;28;20266;-61
2023/03/31 00:47:32;;;;;;;6.75;2.20;;;9.30;99.90;;;;;;2077846;28;20195;-61
2023/03/31 00:48:38;;;;;;;5.75;2.22;;;9.20;99.90;;;;;;2078017;28;20181;-61
2023/03/31 00:49:50;;;;;;;5.82;2.20;;;9.20;99.90;;;;;;2069250;28;20186;-61
2023/03/31 00:50:58;;;;;;;10.00;2.55;;;9.30;99.90;;;;;;2069462;28;20201;-61
2023/03/31 00:52:41;;;;;;;9.18;2.50;;;9.30;99.90;;;;;;2071130;28;20647;-61
2023/03/31 00:53:58;;;;;;;9.50;2.50;;;9.40;99.90;;;;;;2077811;28;20240;-60
2023/03/31 00:55:09;;;;;;;3.92;2.15;;;9.30;99.90;;;;;;2077966;28;20200;-61
2023/03/31 00:56:16;;;;;;;7.97;2.83;;;9.30;99.90;;;;;;2077774;28;20192;-60
2023/03/31 00:57:24;;;;;;;5.80;2.42;;;9.20;99.90;;;;;;2077758;28;20734;-61
2023/03/31 00:58:32;;;;;;;4.30;2.30;;;9.10;99.90;;;;;;2076742;28;20181;-61
2023/03/31 00:59:49;;;;;;;5.00;2.13;;;9.20;99.90;;;;;;2078370;28;20201;-61
2023/03/31 01:00:57;;;;;;;6.18;2.60;;;9.10;99.90;;;;;;2069136;28;20194;-61
2023/03/31 01:02:04;;;;;;;8.80;2.63;;;9.20;99.90;;;;;;2064274;28;20197;-60
2023/03/31 01:03:09;;;;;;;4.10;2.40;;;9.20;99.90;;;;;;2074641;28;20654;-61
2023/03/31 01:04:21;;;;;;;4.93;2.60;;;9.20;99.90;;;;;;2078090;28;20196;-61
2023/03/31 01:05:42;;;;;;;8.40;3.25;;;9.20;99.90;;;;;;2078193;28;20195;-61
2023/03/31 01:07:03;;;;;;;5.75;3.45;;;9.10;99.90;;;;;;2077290;28;20273;-61
2023/03/31 01:08:05;;;;;;;8.50;3.55;;;9.00;99.90;;;;;;2075737;28;20200;-61
2023/03/31 01:09:09;;;;;;;5.88;2.60;;;8.90;99.90;;;;;;2077172;28;20188;-62
2023/03/31 01:10:15;;;;;;;7.57;2.63;;;8.80;99.90;;;;;;2077985;28;20559;-62
2023/03/31 01:11:26;;;;;;;5.05;1.98;;;8.80;99.90;;;;;;2078190;28;20193;-61
2023/03/31 01:12:36;;;;;;;7.10;2.50;;;8.70;99.90;;;;;;2077639;28;20189;-60
2023/03/31 01:13:43;;;;;;;4.93;2.30;;;8.80;99.90;;;;;;2071232;28;20241;-61
2023/03/31 01:14:50;;;;;;;6.60;2.72;;;8.70;99.90;;;;;;2070659;28;20185;-61
2023/03/31 01:15:55;;;;;;;8.23;2.40;;;8.80;99.90;;;;;;2077255;28;20872;-61
2023/03/31 01:17:01;;;;;;;7.93;2.65;;;8.70;99.90;;;;;;2077690;28;20243;-61
2023/03/31 01:18:05;;;;;;;13.57;4.07;;;8.70;99.90;;;;;;2077712;28;20193;-61
2023/03/31 01:19:22;;;;;;;5.68;3.10;;;8.70;99.90;;;;;;2077158;28;20185;-64
2023/03/31 01:20:48;;;;;;;8.02;3.20;;;8.70;99.90;;;;;;2071738;28;20192;-61
2023/03/31 01:22:12;;;;;;;9.23;6.50;;;8.50;99.90;;;;;;2078303;28;20186;-60
2023/03/31 01:23:36;;;;;;;7.63;2.90;;;8.40;99.90;;;;;;2077498;28;20222;-61
2023/03/31 01:25:22;;;;;;;8.48;3.30;;;8.30;99.90;;;;;;2077704;28;20192;-60
2023/03/31 01:26:47;;;;;;;6.57;3.00;;;8.30;99.90;;;;;;2078819;28;20684;-60
2023/03/31 01:28:41;;;;;;;6.72;3.75;;;8.20;99.90;;;;;;2077017;28;20692;-61
2023/03/31 01:30:08;;;;;;;3.75;2.63;;;8.20;99.90;;;;;;2077680;28;20363;-61
2023/03/31 01:31:59;;;;;;;12.93;12.00;;;8.00;99.90;;;;;;2077620;28;20227;-61
2023/03/31 01:33:51;;;;;;;3.67;2.75;;;7.90;99.90;;;;;;2082820;28;20188;-61
2023/03/31 01:35:14;;;;;;;3.67;2.28;;;7.90;99.90;;;;;;2065822;28;20228;-61
2023/03/31 01:36:53;;;;;;;7.50;2.78;;;7.90;99.90;;;;;;2081874;28;20547;-60
2023/03/31 01:38:31;;;;;;;8.00;6.65;;;7.90;99.90;;;;;;2077884;28;20193;-60
2023/03/31 01:40:01;;;;;;;5.03;2.55;;;7.90;99.90;;;;;;2077035;28;20204;-61
2023/03/31 01:41:36;;;;;;;5.03;2.65;;;7.90;99.90;;;;;;2077390;28;20279;-61
2023/03/31 01:42:58;;;;;;;6.10;2.83;;;7.90;99.90;;;;;;2080960;28;20184;-60
2023/03/31 01:44:20;;;;;;;5.57;3.83;;;8.10;99.90;;;;;;2073325;28;20556;-60
2023/03/31 01:45:57;;;;;;;5.28;2.90;;;8.10;99.90;;;;;;2065245;28;20210;-60
2023/03/31 01:47:21;;;;;;;8.85;2.83;;;8.20;99.90;;;;;;2067907;28;20171;-60
2023/03/31 01:48:57;;;;;;;5.60;3.25;;;8.30;99.90;;;;;;2070444;28;20618;-60
2023/03/31 01:50:36;;;;;;;6.75;3.00;;;8.40;99.90;;;;;;2074485;28;20271;-61
2023/03/31 01:52:08;;;;;;;11.32;3.15;;;8.50;99.90;;;;;;2074934;28;20219;-61
2023/03/31 01:53:50;;;;;;;3.97;2.88;;;8.50;99.90;;;;;;2069099;28;20189;-61
2023/03/31 01:55:14;;;;;;;6.57;3.45;;;8.60;99.90;;;;;;2076772;28;20192;-61
2023/03/31 01:56:34;;;;;;;7.22;3.67;;;8.60;99.90;;;;;;2077459;28;20180;-61
2023/03/31 01:57:50;;;;;;;7.05;3.25;;;8.70;99.90;;;;;;2078073;28;20193;-61
2023/03/31 01:59:28;;;;;;;6.43;3.40;;;8.80;99.90;;;;;;2077403;28;20192;-61
2023/03/31 02:00:41;;;;;;;7.82;3.83;;;8.80;99.90;;;;;;2075935;28;20688;-61
2023/03/31 02:01:58;;;;;;;6.57;3.22;;;8.80;99.90;;;;;;2077169;28;20670;-59
2023/03/31 02:03:13;;;;;;;6.00;3.30;;;8.90;99.90;;;;;;2079163;28;20187;-61
2023/03/31 02:04:46;;;;;;;5.70;3.60;;;8.90;99.90;;;;;;2074439;28;20252;-60
2023/03/31 02:05:57;;;;;;;12.52;5.38;;;8.90;99.90;;;;;;2078111;28;20175;-61
2023/03/31 02:07:13;;;;;;;5.40;3.55;;;8.90;99.90;;;;;;2070083;28;20664;-61
2023/03/31 02:08:28;;;;;;;7.50;3.42;;;9.00;99.90;;;;;;2071992;28;20195;-61
2023/03/31 02:09:40;;;;;;;11.98;4.32;;;8.90;99.90;;;;;;2071476;28;20187;-61
2023/03/31 02:10:48;;;;;;;5.88;3.63;;;8.90;99.90;;;;;;2070757;28;20195;-61
2023/03/31 02:11:55;;;;;;;6.13;3.70;;;8.90;99.90;;;;;;2072087;28;20212;-62
2023/03/31 02:13:02;;;;;;;9.55;4.53;;;8.90;99.90;;;;;;2077724;28;20267;-61
2023/03/31 02:14:09;;;;;;;9.35;4.43;;;8.80;99.90;;;;;;2076667;28;20207;-61
2023/03/31 02:15:23;;;;;;;9.02;3.88;;;8.80;99.90;;;;;;2076801;28;20291;-61
2023/03/31 02:16:32;;;;;;;10.60;4.00;;;8.70;99.90;;;;;;2076633;28;20196;-60
2023/03/31 02:17:41;;;;;;;12.60;4.25;;;8.70;99.90;;;;;;2076655;28;20191;-60
2023/03/31 02:18:48;;;;;;;5.45;3.80;;;8.70;99.90;;;;;;2077514;28;20193;-61
2023/03/31 02:19:58;;;;;;;9.48;3.83;;;8.70;99.90;;;;;;2079626;28;20602;-61
2023/03/31 02:21:06;;;;;;;8.32;4.40;;;8.70;99.90;;;;;;2077184;28;20574;-60
2023/03/31 02:22:11;;;;;;;8.43;4.68;;;8.80;99.90;;;;;;2076481;28;20609;-60
2023/03/31 02:23:25;;;;;;;6.13;4.32;;;8.70;99.90;;;;;;2069883;28;20653;-64
2023/03/31 02:24:33;;;;;;;5.95;3.90;;;8.70;99.90;;;;;;2071060;28;20195;-61
2023/03/31 02:25:50;;;;;;;15.23;4.40;;;8.60;99.90;;;;;;2070544;28;20213;-63
2023/03/31 02:27:16;;;;;;;7.20;4.32;;;8.50;99.90;;;;;;2075770;28;20181;-62
2023/03/31 02:28:25;;;;;;;9.50;4.55;;;8.50;99.90;;;;;;2078287;28;20574;-62
2023/03/31 02:29:31;;;;;;;11.95;4.82;;;8.50;99.90;;;;;;2077532;28;20214;-61
2023/03/31 02:31:04;;;;;;;10.85;5.03;;;8.40;99.90;;;;;;2065899;28;20187;-62
2023/03/31 02:32:24;;;;;;;11.52;4.43;;;8.30;99.90;;;;;;2075931;28;20189;-61
2023/03/31 02:33:29;;;;;;;12.98;4.20;;;8.20;99.90;;;;;;2078772;28;20691;-62
2023/03/31 02:34:35;;;;;;;10.00;4.60;;;8.10;99.90;;;;;;2080746;28;20193;-62
2023/03/31 02:35:41;;;;;;;8.57;4.25;;;8.10;99.90;;;;;;2080172;28;20177;-62
2023/03/31 02:36:48;;;;;;;7.60;4.45;;;8.10;99.90;;;;;;2077383;28;20203;-61
2023/03/31 02:37:54;;;;;;;9.40;5.13;;;8.00;99.90;;;;;;2077739;28;20258;-62
2023/03/31 02:39:06;;;;;;;7.68;4.53;;;7.90;99.90;;;;;;2077012;28;20248;-60
2023/03/31 02:40:17;;;;;;;10.02;4.70;;;7.90;99.90;;;;;;2070788;28;20195;-62
2023/03/31 02:41:23;;;;;;;10.20;4.53;;;7.80;99.90;;;;;;2070087;28;20268;-61
2023/03/31 02:42:29;;;;;;;13.02;4.53;;;7.70;99.90;;;;;;2076747;28;20192;-61
2023/03/31 02:43:35;;;;;;;9.13;4.38;;;7.70;99.90;;;;;;2077295;28;20258;-61
2023/03/31 02:44:40;;;;;;;14.35;4.85;;;7.60;99.90;;;;;;2077410;28;20267;-62
2023/03/31 02:45:49;;;;;;;12.23;4.97;;;7.60;99.90;;;;;;2076836;28;20185;-61
2023/03/31 02:46:55;;;;;;;8.20;4.25;;;7.70;99.90;;;;;;2076624;28;20413;-60
2023/03/31 02:48:01;;;;;;;10.23;4.85;;;7.70;99.90;;;;;;2077735;28;20215;-61
2023/03/31 02:49:07;;;;;;;10.50;4.57;;;7.70;99.90;;;;;;2073774;28;20208;-62
2023/03/31 02:50:09;;;;;;;10.30;4.50;;;7.80;99.90;;;;;;2079992;28;20192;-60
2023/03/31 02:51:39;;;;;;;9.90;4.70;;;7.80;99.90;;;;;;2077227;28;20184;-60
2023/03/31 02:53:14;;;;;;;7.45;4.43;;;7.80;99.90;;;;;;2077123;28;20219;-59
2023/03/31 02:54:31;;;;;;;9.75;4.75;;;7.80;99.90;;;;;;2077359;28;20727;-60
2023/03/31 02:56:35;;;;;;;9.25;4.22;;;7.80;99.90;;;;;;2078093;28;20724;-61
2023/03/31 02:58:53;;;;;;;8.85;4.32;;;7.80;99.90;;;;;;2076476;28;20183;-60
2023/03/31 03:00:23;;;;;;;10.45;5.28;;;7.80;99.90;;;;;;2067407;28;20226;-59
2023/03/31 03:01:45;;;;;;;9.70;4.53;;;7.70;99.90;;;;;;2059548;28;20189;-59
2023/03/31 03:03:31;;;;;;;14.27;4.95;;;7.60;99.90;;;;;;2071774;28;20735;-60
2023/03/31 03:05:19;;;;;;;11.73;4.50;;;7.50;99.90;;;;;;2076861;28;20186;-60
2023/03/31 03:06:52;;;;;;;10.32;3.80;;;7.40;99.90;;;;;;2080223;28;20270;-60
2023/03/31 03:08:23;;;;;;;9.98;4.60;;;7.40;99.90;;;;;;2076551;28;20234;-60
2023/03/31 03:10:11;;;;;;;8.95;4.45;;;7.30;99.90;;;;;;2076170;28;20184;-60
2023/03/31 03:11:20;;;;;;;10.30;4.97;;;7.20;99.90;;;;;;2075076;28;20762;-60
2023/03/31 03:12:33;;;;;;;7.78;4.80;;;7.20;99.90;;;;;;2076437;28;20202;-60
2023/03/31 03:14:09;;;;;;;11.82;4.88;;;7.10;99.90;;;;;;2076962;28;20205;-60
2023/03/31 03:15:32;;;;;;;10.25;4.55;;;7.20;99.90;;;;;;2079629;28;20188;-60
2023/03/31 03:16:52;;;;;;;7.82;4.80;;;7.10;99.90;;;;;;2076443;28;20281;-60
2023/03/31 03:17:58;;;;;;;7.55;4.28;;;7.10;99.90;;;;;;2079299;28;20193;-60
2023/03/31 03:19:06;;;;;;;8.70;4.60;;;7.10;99.90;;;;;;2072685;28;20199;-61
2023/03/31 03:20:10;;;;;;;8.32;4.60;;;7.10;99.90;;;;;;2069893;28;20616;-59
2023/03/31 03:21:15;;;;;;;6.90;4.60;;;7.10;99.90;;;;;;2076852;28;20189;-60
2023/03/31 03:22:22;;;;;;;13.30;4.72;;;7.10;99.90;;;;;;2076742;28;20210;-60
2023/03/31 03:23:28;;;;;;;14.38;4.75;;;7.10;99.90;;;;;;2072362;28;20190;-58
2023/03/31 03:24:33;;;;;;;7.78;4.78;;;7.10;99.90;;;;;;2076549;28;20552;-60
2023/03/31 03:25:40;;;;;;;8.77;4.88;;;7.10;99.90;;;;;;2073862;28;20186;-61
2023/03/31 03:26:45;;;;;;;7.40;4.22;;;7.00;99.90;;;;;;2077648;28;20181;-60
2023/03/31 03:27:54;;;;;;;14.02;4.68;;;7.10;99.90;;;;;;2077651;28;20209;-59
2023/03/31 03:28:59;;;;;;;8.73;4.25;;;7.10;99.90;;;;;;2076733;28;20251;-60
2023/03/31 03:30:06;;;;;;;7.03;4.47;;;7.10;99.90;;;;;;2076964;28;20195;-60
2023/03/31 03:31:09;;;;;;;12.38;4.32;;;7.00;99.90;;;;;;2080987;28;20622;-60
2023/03/31 03:32:15;;;;;;;11.18;5.60;;;7.00;99.90;;;;;;2080638;28;20204;-60
2023/03/31 03:33:23;;;;;;;9.18;4.00;;;7.00;99.90;;;;;;2077417;28;20219;-60
2023/03/31 03:34:29;;;;;;;5.45;3.47;;;7.00;99.90;;;;;;2077668;28;20189;-61
2023/03/31 03:35:35;;;;;;;9.65;3.90;;;7.00;99.90;;;;;;2077538;28;20740;-60
2023/03/31 03:36:41;;;;;;;8.98;4.00;;;7.00;99.90;;;;;;2077620;28;20185;-60
2023/03/31 03:37:46;;;;;;;9.38;5.32;;;7.10;99.90;;;;;;2077014;28;20189;-60
2023/03/31 03:38:52;;;;;;;5.40;4.00;;;7.10;99.90;;;;;;2077146;28;20644;-60
2023/03/31 03:39:58;;;;;;;9.48;3.70;;;7.10;99.90;;;;;;2076714;28;20205;-61
2023/03/31 03:41:04;;;;;;;11.88;4.18;;;7.00;99.90;;;;;;2080238;28;20265;-60
2023/03/31 03:42:09;;;;;;;6.43;3.63;;;7.10;99.90;;;;;;2076510;28;20238;-60
2023/03/31 03:43:14;;;;;;;7.22;3.63;;;7.10;99.90;;;;;;2077651;28;20184;-61
2023/03/31 03:44:20;;;;;;;11.15;3.95;;;7.10;99.90;;;;;;2076728;28;20614;-60
2023/03/31 03:45:26;;;;;;;8.68;4.18;;;7.10;99.90;;;;;;2076798;28;20185;-61
2023/03/31 03:46:32;;;;;;;5.90;3.47;;;7.10;99.90;;;;;;2076885;28;20275;-61
2023/03/31 03:47:37;;;;;;;8.70;3.90;;;7.10;99.90;;;;;;2076824;28;20183;-61
2023/03/31 03:48:43;;;;;;;7.32;4.07;;;7.20;99.90;;;;;;2076663;28;20180;-61
2023/03/31 03:49:49;;;;;;;5.53;3.75;;;7.20;99.90;;;;;;2076559;28;20576;-61
2023/03/31 03:50:56;;;;;;;5.43;3.55;;;7.20;99.90;;;;;;2076717;28;20603;-61
2023/03/31 03:52:02;;;;;;;7.70;3.80;;;7.20;99.90;;;;;;2076442;28;20192;-60
2023/03/31 03:53:04;;;;;;;5.88;3.78;;;7.20;99.90;;;;;;2076520;28;20196;-61
2023/03/31 03:54:09;;;;;;;7.80;3.63;;;7.20;99.90;;;;;;2076676;28;20228;-60
2023/03/31 03:55:16;;;;;;;9.80;4.20;;;7.20;99.90;;;;;;2077141;28;20185;-61
2023/03/31 03:56:22;;;;;;;10.25;4.85;;;7.20;99.90;;;;;;2076864;28;20797;-61
2023/03/31 03:57:28;;;;;;;9.95;4.30;;;7.10;99.90;;;;;;2076939;28;20200;-61
2023/03/31 03:58:33;;;;;;;6.63;3.63;;;7.00;99.90;;;;;;2076465;28;20181;-60
2023/03/31 03:59:39;;;;;;;5.43;3.67;;;7.00;99.90;;;;;;2078237;28;20209;-61
2023/03/31 04:00:46;;;;;;;7.07;4.03;;;7.00;99.90;;;;;;2078271;28;20242;-61
2023/03/31 04:01:51;;;;;;;7.05;5.28;;;7.00;99.90;;;;;;2078098;28;20212;-60
2023/03/31 04:02:57;;;;;;;7.13;4.20;;;6.90;99.90;;;;;;2078059;28;20191;-60
2023/03/31 04:04:04;;;;;;;9.52;3.90;;;6.90;99.90;;;;;;2078045;28;20197;-61
2023/03/31 04:05:09;;;;;;;9.52;3.55;;;6.90;99.90;;;;;;2078066;28;20668;-61
2023/03/31 04:06:14;;;;;;;5.68;3.47;;;6.90;99.90;;;;;;2078232;28;20224;-60
2023/03/31 04:07:20;;;;;;;7.43;4.10;;;7.00;99.90;;;;;;2077941;28;20184;-61
2023/03/31 04:08:26;;;;;;;6.90;6.03;;;7.00;99.90;;;;;;2078284;28;20669;-59
2023/03/31 04:09:32;;;;;;;6.80;3.60;;;7.00;99.90;;;;;;2078286;28;20230;-61
2023/03/31 04:10:43;;;;;;;6.65;4.70;;;7.00;99.90;;;;;;2078171;28;20827;-59
2023/03/31 04:11:49;;;;;;;5.20;3.78;;;7.00;99.90;;;;;;2078112;28;20650;-61
2023/03/31 04:12:54;;;;;;;5.03;3.22;;;7.00;99.90;;;;;;2078049;28;20713;-61
2023/03/31 04:14:00;;;;;;;20.88;19.23;;;7.00;99.90;;;;;;2078129;28;20208;-60
2023/03/31 04:15:05;;;;;;;7.45;5.95;;;7.10;99.90;;;;;;2077998;28;20245;-61
2023/03/31 04:16:10;;;;;;;5.97;3.50;;;7.10;99.90;;;;;;2078629;28;20684;-61
2023/03/31 04:17:16;;;;;;;9.15;6.82;;;7.10;99.90;;;;;;2078636;28;20254;-60
2023/03/31 04:18:22;;;;;;;11.23;3.85;;;7.10;99.90;;;;;;2078680;28;20580;-61
2023/03/31 04:19:27;;;;;;;9.85;7.22;;;7.10;99.90;;;;;;2077882;28;20251;-61
2023/03/31 04:20:33;;;;;;;6.63;3.85;;;7.10;99.90;;;;;;2078083;28;20238;-61
2023/03/31 04:21:44;;;;;;;7.18;3.28;;;7.10;99.90;;;;;;2077782;28;20192;-61
2023/03/31 04:22:50;;;;;;;11.90;4.50;;;7.10;99.90;;;;;;2078103;28;20198;-60
2023/03/31 04:24:00;;;;;;;5.93;3.40;;;7.20;99.90;;;;;;2077866;28;20222;-61
2023/03/31 04:25:15;;;;;;;8.15;4.82;;;7.20;99.90;;;;;;2078071;28;20184;-61
2023/03/31 04:26:29;;;;;;;6.30;3.75;;;7.20;99.90;;;;;;2078224;28;20185;-60
2023/03/31 04:27:35;;;;;;;8.40;4.25;;;7.20;99.90;;;;;;2077912;28;20187;-61
2023/03/31 04:28:45;;;;;;;10.70;4.20;;;7.20;99.90;;;;;;2081696;28;20621;-61
2023/03/31 04:29:53;;;;;;;7.32;4.45;;;7.20;99.90;;;;;;2077979;28;20194;-61
2023/03/31 04:31:01;;;;;;;10.85;3.85;;;7.10;99.90;;;;;;2079631;28;20188;-61
2023/03/31 04:32:05;;;;;;;9.05;4.43;;;7.10;99.90;;;;;;2075455;28;20699;-61
2023/03/31 04:33:09;;;;;;;6.68;3.85;;;7.10;99.90;;;;;;2078296;28;20181;-61
2023/03/31 04:34:15;;;;;;;9.20;4.10;;;7.10;99.90;;;;;;2081446;28;21012;-62
2023/03/31 04:35:24;;;;;;;10.60;4.25;;;7.10;99.90;;;;;;2078774;28;20681;-62
2023/03/31 04:36:30;;;;;;;5.38;3.60;;;7.10;99.90;;;;;;2078334;28;20185;-61
2023/03/31 04:37:37;;;;;;;12.20;3.78;;;7.10;99.90;;;;;;2078624;28;20196;-63
2023/03/31 04:38:53;;;;;;;9.35;3.85;;;7.10;99.90;;;;;;2078020;28;20535;-61
2023/03/31 04:40:08;;;;;;;8.18;7.40;;;7.20;99.90;;;;;;2077948;28;20208;-62
2023/03/31 04:41:10;;;;;;;10.50;7.80;;;7.20;99.90;;;;;;2078476;28;20561;-61
2023/03/31 04:42:15;;;;;;;4.97;3.83;;;7.20;99.90;;;;;;2078206;28;20265;-62
2023/03/31 04:43:21;;;;;;;6.47;3.60;;;7.20;99.90;;;;;;2077871;28;20184;-60
2023/03/31 04:44:27;;;;;;;12.05;4.35;;;7.20;99.90;;;;;;2077995;28;20271;-61
2023/03/31 04:45:33;;;;;;;6.97;4.07;;;7.20;99.90;;;;;;2078090;28;20539;-62
2023/03/31 04:46:39;;;;;;;7.22;4.85;;;7.20;99.90;;;;;;2077904;28;20192;-61
2023/03/31 04:47:44;;;;;;;7.93;4.40;;;7.30;99.90;;;;;;2078055;28;20198;-61
2023/03/31 04:48:50;;;;;;;8.85;4.88;;;7.30;99.90;;;;;;2077686;28;20196;-62
2023/03/31 04:49:56;;;;;;;10.02;5.63;;;7.20;99.90;;;;;;2078251;28;20203;-61
2023/03/31 04:51:02;;;;;;;7.85;6.22;;;7.20;99.90;;;;;;2079145;28;20569;-61
2023/03/31 04:52:05;;;;;;;10.32;4.63;;;7.20;99.90;;;;;;2077463;28;20192;-62
2023/03/31 04:53:09;;;;;;;7.03;4.32;;;7.20;99.90;;;;;;2077791;28;20261;-61
2023/03/31 04:54:15;;;;;;;12.88;8.73;;;7.20;99.90;;;;;;2077865;28;20759;-61
2023/03/31 04:55:21;;;;;;;11.32;4.32;;;7.20;99.90;;;;;;2077848;28;20577;-61
2023/03/31 04:56:27;;;;;;;9.90;4.57;;;7.20;99.90;;;;;;2077918;28;20223;-61
2023/03/31 04:57:32;;;;;;;12.38;4.50;;;7.20;99.90;;;;;;2077833;28;20191;-61
2023/03/31 04:58:38;;;;;;;7.80;4.20;;;7.20;99.90;;;;;;2077846;28;20186;-61
2023/03/31 04:59:44;;;;;;;9.70;4.60;;;7.30;99.90;;;;;;2077821;28;20244;-60
2023/03/31 05:00:51;;;;;;;6.28;4.40;;;7.30;99.90;;;;;;2077660;28;20183;-60
2023/03/31 05:01:57;;;;;;;7.13;4.72;;;7.30;99.90;;;;;;2077842;28;20227;-61
2023/03/31 05:03:03;;;;;;;11.82;8.02;;;7.30;99.90;;;;;;2078134;28;20687;-61
2023/03/31 05:04:05;;;;;;;6.85;4.20;;;7.40;99.90;;;;;;2078180;28;20266;-59
2023/03/31 05:05:10;;;;;;;6.13;4.07;;;7.40;99.90;;;;;;2078173;28;20183;-59
2023/03/31 05:06:16;;;;;;;6.88;3.60;;;7.50;99.90;;;;;;2077891;28;20708;-61
2023/03/31 05:07:21;;;;;;;11.77;10.70;;;7.50;99.90;;;;;;2077807;28;20549;-62
2023/03/31 05:08:27;;;;;;;5.53;3.40;;;7.50;99.90;;;;;;2077954;28;20206;-61
2023/03/31 05:09:33;;;;;;;8.32;3.75;;;7.60;99.90;;;;;;2077802;28;20200;-61
2023/03/31 05:10:39;;;;;;;4.88;4.07;;;7.60;99.90;;;;;;2077764;28;20191;-62
2023/03/31 05:11:44;;;;;;;9.75;4.20;;;7.70;99.90;;;;;;2077436;28;20566;-61
2023/03/31 05:12:50;;;;;;;9.02;3.55;;;7.80;99.90;;;;;;2077914;28;20279;-62
2023/03/31 05:13:56;;;;;;;3.90;3.38;;;7.90;99.90;;;;;;2077631;28;20318;-62
2023/03/31 05:15:04;;;;;;;7.55;3.60;;;8.00;99.90;;;;;;2077817;28;20268;-61
2023/03/31 05:16:13;;;;;;;10.35;4.43;;;8.00;99.90;;;;;;2077373;28;20204;-62
2023/03/31 05:17:19;;;;;;;8.45;4.25;;;8.10;99.90;;;;;;2077736;28;20232;-63
2023/03/31 05:18:25;;;;;;;5.07;3.53;;;8.10;99.90;;;;;;2078028;28;20181;-62
2023/03/31 05:19:30;;;;;;;6.75;3.75;;;8.20;99.90;;;;;;2077515;28;20204;-61
2023/03/31 05:20:36;;;;;;;4.93;3.58;;;8.10;99.90;;;;;;2077805;28;20276;-63
2023/03/31 05:21:42;;;;;;;7.80;3.97;;;8.20;99.90;;;;;;2077412;28;20210;-62
2023/03/31 05:22:48;;;;;;;5.28;3.90;;;8.20;99.90;;;;;;2077699;28;20185;-62
2023/03/31 05:23:53;;;;;;;10.80;3.80;;;8.20;99.90;;;;;;2077583;28;20216;-62
2023/03/31 05:24:59;;;;;;;9.07;4.82;;;8.20;99.90;;;;;;2077618;28;20899;-62
2023/03/31 05:26:05;;;;;;;7.47;3.97;;;8.20;99.90;;;;;;2077628;28;20188;-61
2023/03/31 05:27:09;;;;;;;10.48;3.80;;;8.20;99.90;;;;;;2077627;28;20269;-62
2023/03/31 05:28:15;;;;;;;6.97;4.50;;;8.20;99.90;;;;;;2077566;28;20204;-61
2023/03/31 05:29:22;;;;;;;6.78;4.68;;;8.20;99.90;;;;;;2082224;28;20198;-61
2023/03/31 05:30:28;;;;;;;7.75;3.95;;;8.20;99.90;;;;;;2083867;28;20217;-61
2023/03/31 05:31:34;;;;;;;7.57;4.40;;;8.20;99.90;;;;;;2079163;28;20696;-62
2023/03/31 05:32:40;;;;;;;8.48;3.88;;;8.30;99.90;;;;;;2077084;28;20622;-62
2023/03/31 05:33:46;;;;;;;9.40;6.65;;;8.30;99.90;;;;;;2081408;28;20294;-62
2023/03/31 05:34:55;;;;;;;8.05;5.55;;;8.30;99.90;;;;;;2078428;28;20185;-61
2023/03/31 05:36:01;;;;;;;7.82;5.10;;;8.30;99.90;;;;;;2078267;28;20196;-61
2023/03/31 05:37:04;;;;;;;5.90;3.97;;;8.30;99.90;;;;;;2077671;28;20195;-61
2023/03/31 05:38:09;;;;;;;10.02;3.97;;;8.40;99.90;;;;;;2077460;28;20577;-61
2023/03/31 05:39:15;;;;;;;7.70;4.25;;;8.40;99.90;;;;;;2077619;28;20197;-62
2023/03/31 05:40:21;;;;;;;5.80;3.88;;;8.30;99.90;;;;;;2077846;28;20661;-62
2023/03/31 05:41:27;;;;;;;11.63;5.15;;;8.30;99.90;;;;;;2077980;28;20259;-60
2023/03/31 05:42:33;;;;;;;8.25;4.00;;;8.40;99.90;;;;;;2078017;28;20201;-62
2023/03/31 05:43:38;;;;;;;7.22;3.70;;;8.40;99.90;;;;;;2077700;28;20284;-62
2023/03/31 05:44:44;;;;;;;8.75;5.53;;;8.40;99.90;;;;;;2077461;28;20201;-62
2023/03/31 05:45:50;;;;;;;9.18;4.70;;;8.40;99.90;;;;;;2077508;28;20184;-62
2023/03/31 05:46:56;;;;;;;7.10;4.72;;;8.40;99.90;;;;;;2077453;28;20185;-61
2023/03/31 05:48:02;;;;;;;9.52;4.60;;;8.40;99.90;;;;;;2077731;28;20185;-64
2023/03/31 05:49:05;;;;;;;9.23;6.88;;;8.50;99.90;;;;;;2076708;28;20184;-61
2023/03/31 05:50:10;;;;;;;9.40;7.88;;;8.50;99.90;;;;;;2077180;28;20182;-60
2023/03/31 05:51:15;;;;;;;12.07;10.80;;;8.40;99.90;;;;;;2077747;28;20207;-60
2023/03/31 05:52:21;;;;;;;11.05;9.93;;;8.30;99.90;;;;;;2078068;28;20188;-61
2023/03/31 05:53:27;;;;;;;8.13;4.13;;;8.30;99.90;;;;;;2077372;28;20234;-61
2023/03/31 05:54:33;;;;;;;5.00;3.50;;;8.30;99.90;;;;;;2077318;28;20243;-61
2023/03/31 05:55:39;;;;;;;6.45;3.63;;;8.30;99.90;;;;;;2077254;28;20192;-61
2023/03/31 05:56:44;;;;;;;11.98;3.85;;;8.40;99.90;;;;;;2077813;28;20181;-62
2023/03/31 05:57:50;;;;;;;9.30;4.05;;;8.50;99.90;;;;;;2078248;28;20231;-60
2023/03/31 05:59:00;;;;;;;8.82;7.00;;;8.50;99.90;;;;;;2077875;28;20639;-61
2023/03/31 06:00:09;;;;;;;6.10;3.90;;;8.50;99.90;;;;;;2077312;28;20208;-60
2023/03/31 06:01:21;;;;;;;6.05;4.55;;;8.40;99.90;;;;;;2076451;28;20197;-61
2023/03/31 06:02:27;;;;;;;7.43;5.30;;;8.40;99.90;;;;;;2076911;28;20279;-62
2023/03/31 06:03:34;;;;;;;9.45;7.38;;;8.40;99.90;;;;;;2077320;28;20676;-61
2023/03/31 06:04:40;;;;;;;4.20;3.28;;;8.40;99.90;;;;;;2077807;28;20204;-62
2023/03/31 06:05:48;;;;;;;6.38;4.20;;;8.40;99.90;;;;;;2077705;28;20185;-61
2023/03/31 06:06:54;;;;;;;12.05;5.07;;;8.40;99.90;;;;;;2078033;28;20268;-62
2023/03/31 06:08:00;;;;;;;8.50;4.82;;;8.40;99.90;;;;;;2077133;28;20739;-62
2023/03/31 06:09:05;;;;;;;11.15;5.70;;;8.50;99.90;;;;;;2077273;28;20311;-59
2023/03/31 06:10:09;;;;;;;10.18;5.13;;;8.40;99.90;;;;;;2077080;28;20198;-61
2023/03/31 06:11:20;;;;;;;7.03;4.15;;;8.40;99.90;;;;;;2077245;28;20246;-61
2023/03/31 06:12:26;;;;;;;7.63;5.80;;;8.40;99.90;;;;;;2077316;28;20185;-62
2023/03/31 06:13:34;;;;;;;4.78;2.92;;;8.40;99.90;;;;;;2077251;28;20189;-60